WIL weather

Nairobi Wilson Airport
Nairobi, Nairobi Province, Kenya

Public forecast

Using degrees Celsius for public forecast. Weather courtesy of forecast.io.

Current aviation weather report (METAR) for Nairobi Wilson Airport

Retrieved 2020/03/29 23:00 UTC (20 minutes ago):

HKNW 292300Z 00000KT 9999 BKN019 18/17 Q1020

Aviation forecast (TAF) for Nairobi Wilson Airport

Retrieved 2020/03/29 18:39 UTC (5 hours ago):

TAF HKNW 291700Z 2918/3018 04005KT 9999 SCT022 TEMPO 3000/3006 3000 BR SCT005 BKN018 BECMG 3008/3011 07010KT 9999 NSW FEW027CB SCT028 BKN090 TEMPO 3012/3018 -SHRA FEW021CB BKN022 BKN080